sensor_id;sensor_type;location;lat;lon;timestamp;pressure;altitude;pressure_sealevel;temperature;humidity
51359;BME280;37448;51.588;7.248;2024-03-08T00:01:59;101209.44;;;2.23;83.37
51359;BME280;37448;51.588;7.248;2024-03-08T00:03:59;101209.38;;;2.20;83.41
51359;BME280;37448;51.588;7.248;2024-03-08T00:06:00;101202.41;;;2.16;81.56
51359;BME280;37448;51.588;7.248;2024-03-08T00:08:00;101199.84;;;2.17;81.91
51359;BME280;37448;51.588;7.248;2024-03-08T00:10:01;101192.94;;;2.14;82.28
51359;BME280;37448;51.588;7.248;2024-03-08T00:12:02;101198.91;;;2.13;81.89
51359;BME280;37448;51.588;7.248;2024-03-08T00:14:02;101203.16;;;2.11;86.08
51359;BME280;37448;51.588;7.248;2024-03-08T00:16:06;101197.81;;;2.04;84.60
51359;BME280;37448;51.588;7.248;2024-03-08T00:18:09;101195.16;;;2.02;84.58
51359;BME280;37448;51.588;7.248;2024-03-08T00:20:10;101193.41;;;1.99;85.60
51359;BME280;37448;51.588;7.248;2024-03-08T00:22:11;101188.97;;;1.94;86.16
51359;BME280;37448;51.588;7.248;2024-03-08T00:24:11;101192.38;;;1.93;85.52
51359;BME280;37448;51.588;7.248;2024-03-08T00:26:12;101190.56;;;1.90;86.98
51359;BME280;37448;51.588;7.248;2024-03-08T00:28:12;101192.22;;;1.88;84.17
51359;BME280;37448;51.588;7.248;2024-03-08T00:30:15;101188.88;;;1.91;84.71
51359;BME280;37448;51.588;7.248;2024-03-08T00:32:15;101190.53;;;1.89;86.46
51359;BME280;37448;51.588;7.248;2024-03-08T00:34:17;101186.16;;;1.84;85.28
51359;BME280;37448;51.588;7.248;2024-03-08T00:36:17;101183.47;;;1.81;84.58
51359;BME280;37448;51.588;7.248;2024-03-08T00:38:17;101182.56;;;1.79;87.31
51359;BME280;37448;51.588;7.248;2024-03-08T00:40:19;101187.69;;;1.78;83.79
51359;BME280;37448;51.588;7.248;2024-03-08T00:42:20;101186.78;;;1.76;87.32
51359;BME280;37448;51.588;7.248;2024-03-08T00:44:20;101184.06;;;1.71;85.98
51359;BME280;37448;51.588;7.248;2024-03-08T00:46:21;101180.56;;;1.69;85.43
51359;BME280;37448;51.588;7.248;2024-03-08T00:48:22;101178.00;;;1.69;84.75
51359;BME280;37448;51.588;7.248;2024-03-08T00:50:22;101178.75;;;1.65;87.78
51359;BME280;37448;51.588;7.248;2024-03-08T00:52:23;101177.00;;;1.64;88.04
51359;BME280;37448;51.588;7.248;2024-03-08T00:54:24;101166.66;;;1.61;86.36
51359;BME280;37448;51.588;7.248;2024-03-08T00:56:24;101170.81;;;1.57;83.64
51359;BME280;37448;51.588;7.248;2024-03-08T00:58:25;101168.16;;;1.54;84.37
51359;BME280;37448;51.588;7.248;2024-03-08T01:00:25;101172.41;;;1.53;85.88
51359;BME280;37448;51.588;7.248;2024-03-08T01:02:26;101161.22;;;1.51;85.31
51359;BME280;37448;51.588;7.248;2024-03-08T01:04:26;101162.88;;;1.49;88.13
51359;BME280;37448;51.588;7.248;2024-03-08T01:06:29;101164.53;;;1.47;86.83
51359;BME280;37448;51.588;7.248;2024-03-08T01:08:29;101161.06;;;1.45;88.94
51359;BME280;37448;51.588;7.248;2024-03-08T01:10:29;101157.59;;;1.43;89.61
51359;BME280;37448;51.588;7.248;2024-03-08T01:12:30;101160.09;;;1.41;89.80
51359;BME280;37448;51.588;7.248;2024-03-08T01:14:30;101148.03;;;1.39;86.52
51359;BME280;37448;51.588;7.248;2024-03-08T01:16:31;101149.72;;;1.38;88.37
51359;BME280;37448;51.588;7.248;2024-03-08T01:18:33;101147.22;;;1.40;87.83
51359;BME280;37448;51.588;7.248;2024-03-08T01:20:33;101143.63;;;1.35;90.49
51359;BME280;37448;51.588;7.248;2024-03-08T01:22:34;101151.31;;;1.35;88.41
51359;BME280;37448;51.588;7.248;2024-03-08T01:24:34;101140.13;;;1.33;90.32
51359;BME280;37448;51.588;7.248;2024-03-08T01:26:35;101143.53;;;1.32;86.43
51359;BME280;37448;51.588;7.248;2024-03-08T01:28:35;101131.53;;;1.31;86.71
51359;BME280;37448;51.588;7.248;2024-03-08T01:30:36;101131.44;;;1.27;89.13
51359;BME280;37448;51.588;7.248;2024-03-08T01:32:37;101128.09;;;1.30;86.52
51359;BME280;37448;51.588;7.248;2024-03-08T01:34:38;101120.34;;;1.28;84.31
51359;BME280;37448;51.588;7.248;2024-03-08T01:36:38;101122.03;;;1.28;87.83
51359;BME280;37448;51.588;7.248;2024-03-08T01:38:39;101122.81;;;1.25;85.20
51359;BME280;37448;51.588;7.248;2024-03-08T01:40:39;101120.25;;;1.25;87.07
51359;BME280;37448;51.588;7.248;2024-03-08T01:42:41;101115.94;;;1.24;86.79
51359;BME280;37448;51.588;7.248;2024-03-08T01:44:41;101108.16;;;1.21;90.40
51359;BME280;37448;51.588;7.248;2024-03-08T01:46:44;101114.97;;;1.21;89.24
51359;BME280;37448;51.588;7.248;2024-03-08T01:48:45;101108.84;;;1.16;88.40
51359;BME280;37448;51.588;7.248;2024-03-08T01:50:46;101112.28;;;1.16;88.97
51359;BME280;37448;51.588;7.248;2024-03-08T01:52:46;101107.06;;;1.13;86.66
51359;BME280;37448;51.588;7.248;2024-03-08T01:54:46;101099.31;;;1.11;91.04
51359;BME280;37448;51.588;7.248;2024-03-08T01:56:47;101100.13;;;1.10;90.44
51359;BME280;37448;51.588;7.248;2024-03-08T01:58:48;101099.97;;;1.06;88.41
51359;BME280;37448;51.588;7.248;2024-03-08T02:00:49;101094.91;;;1.07;88.90
51359;BME280;37448;51.588;7.248;2024-03-08T02:02:50;101098.34;;;1.08;88.40
51359;BME280;37448;51.588;7.248;2024-03-08T02:04:51;101097.56;;;1.10;87.60
51359;BME280;37448;51.588;7.248;2024-03-08T02:06:53;101094.81;;;1.04;86.43
51359;BME280;37448;51.588;7.248;2024-03-08T02:08:53;101087.97;;;1.05;88.80
51359;BME280;37448;51.588;7.248;2024-03-08T02:10:53;101086.22;;;1.04;89.69
51359;BME280;37448;51.588;7.248;2024-03-08T02:12:55;101081.06;;;1.02;86.09
51359;BME280;37448;51.588;7.248;2024-03-08T02:14:55;101087.06;;;1.03;86.01
51359;BME280;37448;51.588;7.248;2024-03-08T02:17:00;101086.16;;;1.01;89.99
51359;BME280;37448;51.588;7.248;2024-03-08T02:19:01;101080.94;;;0.97;90.11
51359;BME280;37448;51.588;7.248;2024-03-08T02:21:02;101076.53;;;0.93;91.69
51359;BME280;37448;51.588;7.248;2024-03-08T02:23:03;101074.78;;;0.92;91.56
51359;BME280;37448;51.588;7.248;2024-03-08T02:25:04;101073.06;;;0.91;87.17
51359;BME280;37448;51.588;7.248;2024-03-08T02:27:05;101074.72;;;0.91;89.58
51359;BME280;37448;51.588;7.248;2024-03-08T02:29:06;101066.19;;;0.92;89.01
51359;BME280;37448;51.588;7.248;2024-03-08T02:31:06;101067.84;;;0.90;86.75
51359;BME280;37448;51.588;7.248;2024-03-08T02:33:08;101066.06;;;0.87;90.88
51359;BME280;37448;51.588;7.248;2024-03-08T02:35:11;101061.75;;;0.86;90.02
51359;BME280;37448;51.588;7.248;2024-03-08T02:37:12;101063.50;;;0.87;88.18
51359;BME280;37448;51.588;7.248;2024-03-08T02:39:12;101066.94;;;0.88;88.10
51359;BME280;37448;51.588;7.248;2024-03-08T02:41:13;101060.91;;;0.85;88.27
51359;BME280;37448;51.588;7.248;2024-03-08T02:43:14;101056.63;;;0.86;89.91
51359;BME280;37448;51.588;7.248;2024-03-08T02:45:22;101060.00;;;0.85;88.36
51359;BME280;37448;51.588;7.248;2024-03-08T02:47:22;101059.97;;;0.83;88.65
51359;BME280;37448;51.588;7.248;2024-03-08T02:49:22;101053.03;;;0.81;90.10
51359;BME280;37448;51.588;7.248;2024-03-08T02:51:23;101056.44;;;0.80;90.64
51359;BME280;37448;51.588;7.248;2024-03-08T02:53:23;101053.78;;;0.77;90.72
51359;BME280;37448;51.588;7.248;2024-03-08T02:55:24;101052.97;;;0.78;90.38
51359;BME280;37448;51.588;7.248;2024-03-08T02:57:26;101055.50;;;0.76;90.27
51359;BME280;37448;51.588;7.248;2024-03-08T02:59:27;101053.78;;;0.77;89.58
51359;BME280;37448;51.588;7.248;2024-03-08T03:01:27;101046.81;;;0.73;89.85
51359;BME280;37448;51.588;7.248;2024-03-08T03:03:28;101043.34;;;0.70;90.28
51359;BME280;37448;51.588;7.248;2024-03-08T03:05:29;101041.53;;;0.68;89.50
51359;BME280;37448;51.588;7.248;2024-03-08T03:07:33;101035.56;;;0.67;88.84
51359;BME280;37448;51.588;7.248;2024-03-08T03:09:34;101040.69;;;0.67;89.01
51359;BME280;37448;51.588;7.248;2024-03-08T03:11:35;101037.31;;;0.68;89.40
51359;BME280;37448;51.588;7.248;2024-03-08T03:13:35;101032.09;;;0.65;91.42
51359;BME280;37448;51.588;7.248;2024-03-08T03:15:35;101029.50;;;0.65;88.86
51359;BME280;37448;51.588;7.248;2024-03-08T03:17:36;101026.00;;;0.63;91.14
51359;BME280;37448;51.588;7.248;2024-03-08T03:19:37;101025.16;;;0.63;90.97
51359;BME280;37448;51.588;7.248;2024-03-08T03:21:40;101026.81;;;0.62;90.31
51359;BME280;37448;51.588;7.248;2024-03-08T03:23:43;101033.63;;;0.60;89.87
51359;BME280;37448;51.588;7.248;2024-03-08T03:25:43;101030.13;;;0.58;90.10
51359;BME280;37448;51.588;7.248;2024-03-08T03:27:45;101023.22;;;0.55;92.39
51359;BME280;37448;51.588;7.248;2024-03-08T03:29:46;101031.88;;;0.59;90.87
51359;BME280;37448;51.588;7.248;2024-03-08T03:31:47;101022.41;;;0.56;91.00
51359;BME280;37448;51.588;7.248;2024-03-08T03:33:47;101016.38;;;0.56;90.90
51359;BME280;37448;51.588;7.248;2024-03-08T03:35:47;101017.13;;;0.52;89.87
51359;BME280;37448;51.588;7.248;2024-03-08T03:37:48;101014.56;;;0.52;88.52
51359;BME280;37448;51.588;7.248;2024-03-08T03:40:02;101015.31;;;0.49;89.72
51359;BME280;37448;51.588;7.248;2024-03-08T03:42:03;101016.16;;;0.48;89.80
51359;BME280;37448;51.588;7.248;2024-03-08T03:44:03;101009.25;;;0.46;92.04
51359;BME280;37448;51.588;7.248;2024-03-08T03:46:07;101005.84;;;0.47;91.43
51359;BME280;37448;51.588;7.248;2024-03-08T03:48:08;101004.88;;;0.43;91.38
51359;BME280;37448;51.588;7.248;2024-03-08T03:50:11;101000.56;;;0.40;89.90
51359;BME280;37448;51.588;7.248;2024-03-08T03:52:12;101006.53;;;0.41;90.65
51359;BME280;37448;51.588;7.248;2024-03-08T03:54:12;100999.66;;;0.40;89.93
51359;BME280;37448;51.588;7.248;2024-03-08T03:56:13;101001.31;;;0.38;92.57
51359;BME280;37448;51.588;7.248;2024-03-08T03:58:13;101002.16;;;0.37;91.34
51359;BME280;37448;51.588;7.248;2024-03-08T04:00:14;100998.75;;;0.38;89.68
51359;BME280;37448;51.588;7.248;2024-03-08T04:02:15;100995.31;;;0.37;89.07
51359;BME280;37448;51.588;7.248;2024-03-08T04:04:15;100990.16;;;0.37;90.14
51359;BME280;37448;51.588;7.248;2024-03-08T04:06:16;100991.81;;;0.35;90.79
51359;BME280;37448;51.588;7.248;2024-03-08T04:08:16;100991.78;;;0.34;92.51
51359;BME280;37448;51.588;7.248;2024-03-08T04:10:17;100994.28;;;0.32;90.90
51359;BME280;37448;51.588;7.248;2024-03-08T04:12:17;100990.09;;;0.34;89.99
51359;BME280;37448;51.588;7.248;2024-03-08T04:14:17;100985.88;;;0.36;91.27
51359;BME280;37448;51.588;7.248;2024-03-08T04:16:18;100983.34;;;0.38;89.67
51359;BME280;37448;51.588;7.248;2024-03-08T04:18:19;100981.56;;;0.35;90.94
51359;BME280;37448;51.588;7.248;2024-03-08T04:20:19;100984.94;;;0.34;89.09
51359;BME280;37448;51.588;7.248;2024-03-08T04:22:20;100988.34;;;0.33;90.12
51359;BME280;37448;51.588;7.248;2024-03-08T04:24:20;100984.94;;;0.34;89.79
51359;BME280;37448;51.588;7.248;2024-03-08T04:26:20;100982.31;;;0.31;91.20
51359;BME280;37448;51.588;7.248;2024-03-08T04:28:21;100983.88;;;0.27;92.00
51359;BME280;37448;51.588;7.248;2024-03-08T04:30:22;100989.91;;;0.28;89.43
51359;BME280;37448;51.588;7.248;2024-03-08T04:32:22;100988.16;;;0.27;89.63
51359;BME280;37448;51.588;7.248;2024-03-08T04:34:23;100984.69;;;0.25;90.77
51359;BME280;37448;51.588;7.248;2024-03-08T04:36:24;100982.94;;;0.24;91.95
51359;BME280;37448;51.588;7.248;2024-03-08T04:38:25;100980.31;;;0.22;90.51
51359;BME280;37448;51.588;7.248;2024-03-08T04:40:25;100988.06;;;0.24;90.32
51359;BME280;37448;51.588;7.248;2024-03-08T04:42:27;100984.59;;;0.22;91.02
51359;BME280;37448;51.588;7.248;2024-03-08T04:44:30;100982.84;;;0.21;91.00
51359;BME280;37448;51.588;7.248;2024-03-08T04:46:31;100979.47;;;0.22;89.92
51359;BME280;37448;51.588;7.248;2024-03-08T04:48:31;100969.94;;;0.18;91.59
51359;BME280;37448;51.588;7.248;2024-03-08T04:50:32;100972.50;;;0.18;90.50
51359;BME280;37448;51.588;7.248;2024-03-08T04:52:32;100962.13;;;0.15;92.68
51359;BME280;37448;51.588;7.248;2024-03-08T04:54:32;100972.44;;;0.16;91.45
51359;BME280;37448;51.588;7.248;2024-03-08T04:56:33;100964.69;;;0.15;90.80
51359;BME280;37448;51.588;7.248;2024-03-08T04:58:38;100966.34;;;0.12;91.30
51359;BME280;37448;51.588;7.248;2024-03-08T05:00:38;100956.91;;;0.11;90.82
51359;BME280;37448;51.588;7.248;2024-03-08T05:02:39;100956.00;;;0.09;90.94
51359;BME280;37448;51.588;7.248;2024-03-08T05:04:39;100956.00;;;0.09;92.02
51359;BME280;37448;51.588;7.248;2024-03-08T05:06:39;100955.06;;;0.07;90.77
51359;BME280;37448;51.588;7.248;2024-03-08T05:08:40;100950.84;;;0.08;90.43
51359;BME280;37448;51.588;7.248;2024-03-08T05:10:40;100950.75;;;0.05;92.20
51359;BME280;37448;51.588;7.248;2024-03-08T05:12:40;100951.50;;;0.02;92.11
51359;BME280;37448;51.588;7.248;2024-03-08T05:14:41;100946.38;;;0.02;92.64
51359;BME280;37448;51.588;7.248;2024-03-08T05:16:44;100949.78;;;0.01;93.25
51359;BME280;37448;51.588;7.248;2024-03-08T05:18:48;100949.78;;;0.01;92.61
51359;BME280;37448;51.588;7.248;2024-03-08T05:20:49;100948.13;;;0.03;90.88
51359;BME280;37448;51.588;7.248;2024-03-08T05:22:50;100949.78;;;0.01;91.74
51359;BME280;37448;51.588;7.248;2024-03-08T05:24:51;100942.91;;;0.00;92.78
51359;BME280;37448;51.588;7.248;2024-03-08T05:26:51;100942.91;;;0.00;90.19
51359;BME280;37448;51.588;7.248;2024-03-08T05:28:52;100946.38;;;0.02;91.69
51359;BME280;37448;51.588;7.248;2024-03-08T05:30:52;100940.38;;;0.02;91.38
51359;BME280;37448;51.588;7.248;2024-03-08T05:32:52;100947.22;;;0.01;91.16
51359;BME280;37448;51.588;7.248;2024-03-08T05:34:53;100952.34;;;0.01;90.55
51359;BME280;37448;51.588;7.248;2024-03-08T05:36:53;100946.28;;;-0.01;91.47
51359;BME280;37448;51.588;7.248;2024-03-08T05:38:54;100946.28;;;-0.01;91.57
51359;BME280;37448;51.588;7.248;2024-03-08T05:40:55;100941.06;;;-0.04;90.95
51359;BME280;37448;51.588;7.248;2024-03-08T05:42:55;100942.81;;;-0.03;90.56
51359;BME280;37448;51.588;7.248;2024-03-08T05:44:55;100941.09;;;-0.03;91.10
51359;BME280;37448;51.588;7.248;2024-03-08T05:46:57;100940.19;;;-0.05;91.40
51359;BME280;37448;51.588;7.248;2024-03-08T05:48:58;100930.81;;;-0.04;92.10
51359;BME280;37448;51.588;7.248;2024-03-08T05:51:05;100928.28;;;-0.03;91.20
51359;BME280;37448;51.588;7.248;2024-03-08T05:53:05;100935.03;;;-0.06;92.03
51359;BME280;37448;51.588;7.248;2024-03-08T05:55:09;100939.34;;;-0.05;92.31
51359;BME280;37448;51.588;7.248;2024-03-08T05:57:10;100934.97;;;-0.08;91.71
51359;BME280;37448;51.588;7.248;2024-03-08T05:59:11;100937.53;;;-0.08;91.90
51359;BME280;37448;51.588;7.248;2024-03-08T06:01:11;100933.16;;;-0.10;92.18
51359;BME280;37448;51.588;7.248;2024-03-08T06:03:13;100933.22;;;-0.09;92.69
51359;BME280;37448;51.588;7.248;2024-03-08T06:05:13;100931.50;;;-0.10;91.71
51359;BME280;37448;51.588;7.248;2024-03-08T06:07:14;100936.63;;;-0.10;91.50
51359;BME280;37448;51.588;7.248;2024-03-08T06:09:14;100934.06;;;-0.10;91.05
51359;BME280;37448;51.588;7.248;2024-03-08T06:11:22;100928.16;;;-0.07;92.55
51359;BME280;37448;51.588;7.248;2024-03-08T06:13:23;100940.97;;;-0.07;91.65
51359;BME280;37448;51.588;7.248;2024-03-08T06:15:23;100929.00;;;-0.08;92.53
51359;BME280;37448;51.588;7.248;2024-03-08T06:17:24;100927.28;;;-0.08;92.63
51359;BME280;37448;51.588;7.248;2024-03-08T06:19:25;100927.28;;;-0.08;92.94
51359;BME280;37448;51.588;7.248;2024-03-08T06:21:26;100928.94;;;-0.10;93.07
51359;BME280;37448;51.588;7.248;2024-03-08T06:23:27;100933.28;;;-0.07;92.92
51359;BME280;37448;51.588;7.248;2024-03-08T06:25:27;100936.72;;;-0.07;93.36
51359;BME280;37448;51.588;7.248;2024-03-08T06:27:28;100925.59;;;-0.07;92.20
51359;BME280;37448;51.588;7.248;2024-03-08T06:29:28;100934.22;;;-0.04;93.17
51359;BME280;37448;51.588;7.248;2024-03-08T06:31:28;100929.06;;;-0.05;91.66
51359;BME280;37448;51.588;7.248;2024-03-08T06:33:29;100928.25;;;-0.04;92.26
51359;BME280;37448;51.588;7.248;2024-03-08T06:35:31;100926.59;;;-0.02;91.73
51359;BME280;37448;51.588;7.248;2024-03-08T06:37:34;100925.78;;;-0.01;91.65
51359;BME280;37448;51.588;7.248;2024-03-08T06:39:34;100936.13;;;0.02;91.21
51359;BME280;37448;51.588;7.248;2024-03-08T06:41:36;100922.47;;;0.03;92.82
51359;BME280;37448;51.588;7.248;2024-03-08T06:43:37;100927.69;;;0.06;92.17
51359;BME280;37448;51.588;7.248;2024-03-08T06:45:37;100927.75;;;0.08;91.74
51359;BME280;37448;51.588;7.248;2024-03-08T06:47:38;100931.31;;;0.13;91.75
51359;BME280;37448;51.588;7.248;2024-03-08T06:49:38;100930.50;;;0.14;90.80
51359;BME280;37448;51.588;7.248;2024-03-08T06:51:39;100925.53;;;0.20;91.96
51359;BME280;37448;51.588;7.248;2024-03-08T06:53:41;100930.72;;;0.22;90.80
51359;BME280;37448;51.588;7.248;2024-03-08T06:55:41;100925.78;;;0.28;92.91
51359;BME280;37448;51.588;7.248;2024-03-08T06:57:42;100930.97;;;0.30;90.88
51359;BME280;37448;51.588;7.248;2024-03-08T06:59:42;100928.50;;;0.34;89.93
51359;BME280;37448;51.588;7.248;2024-03-08T07:01:43;100929.56;;;0.41;90.61
51359;BME280;37448;51.588;7.248;2024-03-08T07:03:43;100926.31;;;0.47;90.73
51359;BME280;37448;51.588;7.248;2024-03-08T07:05:44;100937.56;;;0.52;89.81
51359;BME280;37448;51.588;7.248;2024-03-08T07:07:45;100929.94;;;0.53;88.38
51359;BME280;37448;51.588;7.248;2024-03-08T07:09:48;100933.56;;;0.62;90.70
51359;BME280;37448;51.588;7.248;2024-03-08T07:11:49;100931.16;;;0.66;90.47
51359;BME280;37448;51.588;7.248;2024-03-08T07:13:54;100934.72;;;0.73;90.51
51359;BME280;37448;51.588;7.248;2024-03-08T07:15:55;100928.00;;;0.77;89.01
51359;BME280;37448;51.588;7.248;2024-03-08T07:17:55;100933.28;;;0.83;88.85
51359;BME280;37448;51.588;7.248;2024-03-08T07:19:56;100930.19;;;0.95;88.18
51359;BME280;37448;51.588;7.248;2024-03-08T07:21:59;100934.28;;;1.20;87.94
51359;BME280;37448;51.588;7.248;2024-03-08T07:23:59;100928.03;;;1.44;85.59
51359;BME280;37448;51.588;7.248;2024-03-08T07:26:00;100926.16;;;1.74;83.06
51359;BME280;37448;51.588;7.248;2024-03-08T07:28:01;100923.63;;;2.15;85.96
51359;BME280;37448;51.588;7.248;2024-03-08T07:30:02;100928.47;;;2.39;82.06
51359;BME280;37448;51.588;7.248;2024-03-08T07:32:03;100923.09;;;2.71;82.56
51359;BME280;37448;51.588;7.248;2024-03-08T07:34:21;100923.78;;;3.09;83.63
51359;BME280;37448;51.588;7.248;2024-03-08T07:36:21;100918.97;;;3.29;78.53
51359;BME280;37448;51.588;7.248;2024-03-08T07:38:22;100915.16;;;3.57;81.13
51359;BME280;37448;51.588;7.248;2024-03-08T07:40:23;100921.75;;;3.97;83.36
51359;BME280;37448;51.588;7.248;2024-03-08T07:42:23;100924.59;;;4.15;77.95
51359;BME280;37448;51.588;7.248;2024-03-08T07:44:24;100922.31;;;4.40;77.51
51359;BME280;37448;51.588;7.248;2024-03-08T07:46:24;100925.25;;;4.71;76.76
51359;BME280;37448;51.588;7.248;2024-03-08T07:48:24;100916.81;;;4.85;72.02
51359;BME280;37448;51.588;7.248;2024-03-08T07:50:26;100910.31;;;5.24;76.08
51359;BME280;37448;51.588;7.248;2024-03-08T07:52:26;100907.88;;;5.41;74.40
51359;BME280;37448;51.588;7.248;2024-03-08T07:54:26;100907.78;;;5.32;69.21
51359;BME280;37448;51.588;7.248;2024-03-08T07:56:27;100914.19;;;5.82;72.38
51359;BME280;37448;51.588;7.248;2024-03-08T07:58:27;100915.19;;;6.05;71.51
51359;BME280;37448;51.588;7.248;2024-03-08T08:00:29;100913.63;;;6.39;74.42
51359;BME280;37448;51.588;7.248;2024-03-08T08:02:31;100912.00;;;6.58;70.19
51359;BME280;37448;51.588;7.248;2024-03-08T08:04:31;100909.47;;;6.82;71.23
51359;BME280;37448;51.588;7.248;2024-03-08T08:06:32;100900.06;;;7.26;76.44
51359;BME280;37448;51.588;7.248;2024-03-08T08:08:33;100904.38;;;7.31;72.54
51359;BME280;37448;51.588;7.248;2024-03-08T08:10:33;100894.88;;;7.30;67.49
51359;BME280;37448;51.588;7.248;2024-03-08T08:12:34;100891.41;;;7.03;66.73
51359;BME280;37448;51.588;7.248;2024-03-08T08:14:34;100891.41;;;7.66;72.81
51359;BME280;37448;51.588;7.248;2024-03-08T08:16:37;100894.03;;;7.50;65.43
51359;BME280;37448;51.588;7.248;2024-03-08T08:18:38;100883.63;;;7.59;66.59
51359;BME280;37448;51.588;7.248;2024-03-08T08:20:39;100884.50;;;7.75;69.26
51359;BME280;37448;51.588;7.248;2024-03-08T08:22:39;100877.56;;;7.50;65.81
51359;BME280;37448;51.588;7.248;2024-03-08T08:24:40;100886.22;;;7.67;65.12
51359;BME280;37448;51.588;7.248;2024-03-08T08:26:41;100881.84;;;7.86;65.63
51359;BME280;37448;51.588;7.248;2024-03-08T08:28:41;100873.97;;;8.16;71.97
51359;BME280;37448;51.588;7.248;2024-03-08T08:30:46;100880.13;;;7.99;61.97
51359;BME280;37448;51.588;7.248;2024-03-08T08:32:46;100884.41;;;8.10;61.15
51359;BME280;37448;51.588;7.248;2024-03-08T08:34:47;100875.63;;;8.39;69.53
51359;BME280;37448;51.588;7.248;2024-03-08T08:36:48;100873.09;;;8.22;66.06
51359;BME280;37448;51.588;7.248;2024-03-08T08:38:48;100863.47;;;8.45;63.09
51359;BME280;37448;51.588;7.248;2024-03-08T08:40:49;100861.00;;;8.14;58.70
51359;BME280;37448;51.588;7.248;2024-03-08T08:42:50;100866.16;;;8.27;59.84
51359;BME280;37448;51.588;7.248;2024-03-08T08:44:51;100858.19;;;8.63;63.97
51359;BME280;37448;51.588;7.248;2024-03-08T08:46:52;100852.81;;;8.92;63.39
51359;BME280;37448;51.588;7.248;2024-03-08T08:48:53;100846.72;;;8.93;66.98
51359;BME280;37448;51.588;7.248;2024-03-08T08:50:53;100854.41;;;9.07;63.22
51359;BME280;37448;51.588;7.248;2024-03-08T08:52:55;100851.72;;;9.21;63.17
51359;BME280;37448;51.588;7.248;2024-03-08T08:54:56;100835.06;;;9.41;70.29
51359;BME280;37448;51.588;7.248;2024-03-08T08:56:56;100843.97;;;9.15;58.62
51359;BME280;37448;51.588;7.248;2024-03-08T08:58:57;100835.00;;;9.50;65.52
51359;BME280;37448;51.588;7.248;2024-03-08T09:00:58;100835.31;;;10.02;75.29
51359;BME280;37448;51.588;7.248;2024-03-08T09:03:00;100834.38;;;10.08;67.09
51359;BME280;37448;51.588;7.248;2024-03-08T09:05:00;100830.88;;;10.10;58.51
51359;BME280;37448;51.588;7.248;2024-03-08T09:07:03;100831.50;;;9.53;55.41
51359;BME280;37448;51.588;7.248;2024-03-08T09:09:06;100832.78;;;9.97;64.28
51359;BME280;37448;51.588;7.248;2024-03-08T09:11:10;100820.50;;;10.05;64.21
51359;BME280;37448;51.588;7.248;2024-03-08T09:13:10;100820.44;;;10.12;55.02
51359;BME280;37448;51.588;7.248;2024-03-08T09:15:13;100814.97;;;10.30;56.20
51359;BME280;37448;51.588;7.248;2024-03-08T09:17:13;100813.56;;;10.70;64.49
51359;BME280;37448;51.588;7.248;2024-03-08T09:19:17;100819.00;;;10.55;55.88
51359;BME280;37448;51.588;7.248;2024-03-08T09:21:19;100815.28;;;11.25;65.52
51359;BME280;37448;51.588;7.248;2024-03-08T09:23:19;100809.88;;;11.36;65.68
51359;BME280;37448;51.588;7.248;2024-03-08T09:25:20;100809.19;;;11.27;61.67
51359;BME280;37448;51.588;7.248;2024-03-08T09:27:20;100803.44;;;11.07;57.28
51359;BME280;37448;51.588;7.248;2024-03-08T09:29:21;100799.34;;;10.90;55.81
51359;BME280;37448;51.588;7.248;2024-03-08T09:31:21;100790.75;;;11.35;67.72
51359;BME280;37448;51.588;7.248;2024-03-08T09:33:22;100795.84;;;10.91;57.62
51359;BME280;37448;51.588;7.248;2024-03-08T09:35:22;100783.34;;;11.12;57.53
51359;BME280;37448;51.588;7.248;2024-03-08T09:37:23;100776.28;;;11.17;56.76
51359;BME280;37448;51.588;7.248;2024-03-08T09:39:23;100769.34;;;11.16;57.70
51359;BME280;37448;51.588;7.248;2024-03-08T09:41:24;100772.19;;;10.45;51.29
51359;BME280;37448;51.588;7.248;2024-03-08T09:43:24;100768.53;;;10.59;52.88
51359;BME280;37448;51.588;7.248;2024-03-08T09:45:25;100770.16;;;10.68;52.53
51359;BME280;37448;51.588;7.248;2024-03-08T09:47:28;100764.66;;;10.83;53.03
51359;BME280;37448;51.588;7.248;2024-03-08T09:49:33;100758.00;;;11.17;56.48
51359;BME280;37448;51.588;7.248;2024-03-08T09:51:34;100755.16;;;10.81;53.80
51359;BME280;37448;51.588;7.248;2024-03-08T09:53:35;100760.69;;;11.14;55.60
51359;BME280;37448;51.588;7.248;2024-03-08T09:55:37;100750.19;;;10.63;52.59
51359;BME280;37448;51.588;7.248;2024-03-08T09:57:37;100740.53;;;10.72;56.20
51359;BME280;37448;51.588;7.248;2024-03-08T09:59:38;100744.13;;;11.16;58.48
51359;BME280;37448;51.588;7.248;2024-03-08T10:01:38;100736.13;;;11.24;58.07
51359;BME280;37448;51.588;7.248;2024-03-08T10:03:39;100728.41;;;11.19;54.10
51359;BME280;37448;51.588;7.248;2024-03-08T10:05:41;100731.56;;;10.87;53.02
51359;BME280;37448;51.588;7.248;2024-03-08T10:07:41;100735.53;;;11.08;60.39
51359;BME280;37448;51.588;7.248;2024-03-08T10:09:42;100726.53;;;11.26;60.53
51359;BME280;37448;51.588;7.248;2024-03-08T10:11:47;100726.03;;;11.05;59.21
51359;BME280;37448;51.588;7.248;2024-03-08T10:13:49;100725.88;;;11.15;56.56
51359;BME280;37448;51.588;7.248;2024-03-08T10:15:50;100719.63;;;11.24;60.85
51359;BME280;37448;51.588;7.248;2024-03-08T10:17:51;100717.78;;;11.74;65.33
51359;BME280;37448;51.588;7.248;2024-03-08T10:19:53;100716.81;;;11.34;51.56
51359;BME280;37448;51.588;7.248;2024-03-08T10:21:53;100714.03;;;11.44;54.52
51359;BME280;37448;51.588;7.248;2024-03-08T10:23:55;100713.53;;;11.23;50.82
51359;BME280;37448;51.588;7.248;2024-03-08T10:25:56;100712.56;;;11.29;52.11
51359;BME280;37448;51.588;7.248;2024-03-08T10:27:58;100709.38;;;11.60;55.46
51359;BME280;37448;51.588;7.248;2024-03-08T10:29:58;100706.72;;;11.16;51.13
51359;BME280;37448;51.588;7.248;2024-03-08T10:31:59;100710.47;;;10.99;51.83
51359;BME280;37448;51.588;7.248;2024-03-08T10:34:01;100703.28;;;11.14;51.26
51359;BME280;37448;51.588;7.248;2024-03-08T10:36:01;100707.66;;;11.13;53.67
51359;BME280;37448;51.588;7.248;2024-03-08T10:38:04;100698.88;;;11.16;55.27
51359;BME280;37448;51.588;7.248;2024-03-08T10:40:09;100701.16;;;11.34;55.94